Time;durP1;ratioP1;P1;durP2;ratioP2;P2;SDS_P1;SDS_P2;PMS_P1;PMS_P2;Temp;Humidity;BMP_temperature;BMP_pressure;BME280_temperature;BME280_humidity;BME280_pressure;Samples;Min_cycle;Max_cycle;Signal;HPM_P1;HPM_P2
2021/06/12 00:01:38;;;;;;;;;0.00;0.00;;;;;;;;5056148;28;9715;-83
2021/06/12 00:04:05;;;;;;;;;0.00;0.00;;;;;;;;5048432;28;8865;-79
2021/06/12 00:06:32;;;;;;;;;1.00;1.00;;;;;;;;5071805;28;8855;-82
2021/06/12 00:08:59;;;;;;;;;1.50;0.00;;;;;;;;5062369;28;8917;-75
2021/06/12 00:11:26;;;;;;;;;1.25;0.00;;;;;;;;5051989;28;8867;-80
2021/06/12 00:13:53;;;;;;;;;1.00;1.00;;;;;;;;5059070;28;8844;-83
2021/06/12 00:16:20;;;;;;;;;0.50;0.50;;;;;;;;5065340;28;9001;-77
2021/06/12 00:18:48;;;;;;;;;0.00;0.00;;;;;;;;5053142;28;8954;-76
2021/06/12 00:21:15;;;;;;;;;1.00;0.25;;;;;;;;5062914;28;8878;-80
2021/06/12 00:23:42;;;;;;;;;0.75;0.75;;;;;;;;5060135;28;8961;-77
2021/06/12 00:26:09;;;;;;;;;0.00;0.00;;;;;;;;5053944;28;9625;-79
2021/06/12 00:28:37;;;;;;;;;1.00;1.00;;;;;;;;5051316;28;8869;-83
2021/06/12 00:31:04;;;;;;;;;1.00;0.25;;;;;;;;5064144;27;8913;-82
2021/06/12 00:33:31;;;;;;;;;2.50;0.00;;;;;;;;5061794;28;9715;-79
2021/06/12 00:35:59;;;;;;;;;0.75;0.50;;;;;;;;5051176;28;9588;-81
2021/06/12 00:38:26;;;;;;;;;0.50;0.50;;;;;;;;5049016;28;8851;-83
2021/06/12 00:40:53;;;;;;;;;0.00;0.00;;;;;;;;5064950;28;9645;-82
2021/06/12 00:43:20;;;;;;;;;0.00;0.00;;;;;;;;5057465;28;8850;-80
2021/06/12 00:45:47;;;;;;;;;0.50;0.50;;;;;;;;5054138;28;8968;-81
2021/06/12 00:48:14;;;;;;;;;0.25;0.25;;;;;;;;5062244;28;8890;-79
2021/06/12 00:50:42;;;;;;;;;1.00;1.00;;;;;;;;5051038;28;8877;-81
2021/06/12 00:53:10;;;;;;;;;1.00;1.00;;;;;;;;5060009;28;8878;-79
2021/06/12 00:55:37;;;;;;;;;1.00;1.00;;;;;;;;5063701;28;8863;-80
2021/06/12 00:58:06;;;;;;;;;0.75;0.75;;;;;;;;5056020;28;8843;-79
2021/06/12 01:00:33;;;;;;;;;0.00;0.00;;;;;;;;5066182;27;8837;-81
2021/06/12 01:03:00;;;;;;;;;0.75;0.75;;;;;;;;5055926;28;9684;-79
2021/06/12 01:05:27;;;;;;;;;0.50;0.50;;;;;;;;5064326;28;8973;-80
2021/06/12 01:07:54;;;;;;;;;0.00;0.00;;;;;;;;5059390;28;8869;-81
2021/06/12 01:10:23;;;;;;;;;0.50;0.50;;;;;;;;5053957;28;8975;-80
2021/06/12 01:13:06;;;;;;;;;0.25;0.25;;;;;;;;5065617;28;8867;-77
2021/06/12 01:15:37;;;;;;;;;0.00;0.00;;;;;;;;5050086;28;8850;-80
2021/06/12 01:18:08;;;;;;;;;1.00;0.00;;;;;;;;5056055;28;8910;-78
2021/06/12 01:20:52;;;;;;;;;1.00;0.00;;;;;;;;5064394;28;8875;-79
2021/06/12 01:24:07;;;;;;;;;0.00;0.00;;;;;;;;5048796;28;8838;-75
2021/06/12 01:26:56;;;;;;;;;0.00;0.00;;;;;;;;5044795;28;8858;-80
2021/06/12 01:29:29;;;;;;;;;0.00;0.00;;;;;;;;5051286;28;9000;-78
2021/06/12 01:31:59;;;;;;;;;0.00;0.00;;;;;;;;5056526;27;8956;-80
2021/06/12 01:34:28;;;;;;;;;1.00;1.00;;;;;;;;5054192;28;8850;-79
2021/06/12 01:36:55;;;;;;;;;0.00;0.00;;;;;;;;5063898;28;8859;-81
2021/06/12 01:39:25;;;;;;;;;0.00;0.00;;;;;;;;5058632;28;8851;-77
2021/06/12 01:41:57;;;;;;;;;1.25;1.25;;;;;;;;5046829;28;8853;-76
2021/06/12 01:44:24;;;;;;;;;0.00;0.00;;;;;;;;5056155;28;8889;-81
2021/06/12 01:46:52;;;;;;;;;1.75;1.00;;;;;;;;5053162;28;8881;-80
2021/06/12 01:49:21;;;;;;;;;1.25;1.25;;;;;;;;5052692;28;8880;-77
2021/06/12 01:51:49;;;;;;;;;0.00;0.00;;;;;;;;5059549;28;8965;-80
2021/06/12 01:54:17;;;;;;;;;1.00;1.00;;;;;;;;5062282;28;8871;-78
2021/06/12 01:56:46;;;;;;;;;0.00;0.00;;;;;;;;5057961;28;8959;-81
2021/06/12 01:59:12;;;;;;;;;1.00;1.00;;;;;;;;5055184;28;8859;-76
2021/06/12 02:01:42;;;;;;;;;1.00;1.00;;;;;;;;5052016;27;8862;-80
2021/06/12 02:04:10;;;;;;;;;1.00;1.00;;;;;;;;5050849;28;8909;-82
2021/06/12 02:06:39;;;;;;;;;3.25;1.00;;;;;;;;5060837;28;8854;-82
2021/06/12 02:09:06;;;;;;;;;1.50;1.50;;;;;;;;5059772;28;8850;-81
2021/06/12 02:11:33;;;;;;;;;0.00;0.00;;;;;;;;5058937;28;9024;-80
2021/06/12 02:14:00;;;;;;;;;1.00;1.00;;;;;;;;5066790;28;8892;-78
2021/06/12 02:16:28;;;;;;;;;1.00;1.00;;;;;;;;5054993;28;8920;-81
2021/06/12 02:18:55;;;;;;;;;2.00;0.50;;;;;;;;5057759;28;8882;-77
2021/06/12 02:21:23;;;;;;;;;0.00;0.00;;;;;;;;5049154;28;8893;-81
2021/06/12 02:23:52;;;;;;;;;0.25;0.25;;;;;;;;5052336;28;8884;-79
2021/06/12 02:26:21;;;;;;;;;0.00;0.00;;;;;;;;5064158;28;8951;-81
2021/06/12 02:28:49;;;;;;;;;0.75;0.75;;;;;;;;5061144;28;8858;-82
2021/06/12 02:31:18;;;;;;;;;0.75;0.75;;;;;;;;5061711;27;8791;-83
2021/06/12 02:33:46;;;;;;;;;0.75;0.75;;;;;;;;5055656;28;8908;-80
2021/06/12 02:36:14;;;;;;;;;1.25;1.25;;;;;;;;5063374;28;8878;-81
2021/06/12 02:38:41;;;;;;;;;1.00;1.00;;;;;;;;5061381;28;8845;-80
2021/06/12 02:41:10;;;;;;;;;0.75;0.75;;;;;;;;5057932;28;8851;-80
2021/06/12 02:43:37;;;;;;;;;1.00;1.00;;;;;;;;5058235;28;9649;-81
2021/06/12 02:46:05;;;;;;;;;0.00;0.00;;;;;;;;5048247;28;8993;-80
2021/06/12 02:48:33;;;;;;;;;1.00;0.00;;;;;;;;5052620;28;10013;-78
2021/06/12 02:51:03;;;;;;;;;1.50;1.50;;;;;;;;5059397;28;8870;-78
2021/06/12 02:53:33;;;;;;;;;1.00;1.00;;;;;;;;5061794;28;8876;-80
2021/06/12 02:56:02;;;;;;;;;1.00;1.00;;;;;;;;5061897;28;8950;-76
2021/06/12 02:58:31;;;;;;;;;1.00;1.00;;;;;;;;5057752;28;8943;-81
2021/06/12 03:00:59;;;;;;;;;2.50;1.75;;;;;;;;5057737;28;8821;-81
2021/06/12 03:03:26;;;;;;;;;1.00;1.00;;;;;;;;5060758;28;8875;-77
2021/06/12 03:05:56;;;;;;;;;0.00;0.00;;;;;;;;5071074;28;9009;-81
2021/06/12 03:08:26;;;;;;;;;2.00;2.00;;;;;;;;5057586;28;8859;-80
2021/06/12 03:10:53;;;;;;;;;1.75;1.75;;;;;;;;5054765;28;8853;-78
2021/06/12 03:13:26;;;;;;;;;2.00;2.00;;;;;;;;5052663;28;8895;-79
2021/06/12 03:15:55;;;;;;;;;4.50;3.00;;;;;;;;5051535;28;8936;-76
2021/06/12 03:18:23;;;;;;;;;3.25;2.25;;;;;;;;5046792;28;8863;-81
2021/06/12 03:20:52;;;;;;;;;2.50;2.25;;;;;;;;5045195;28;8865;-77
2021/06/12 03:23:20;;;;;;;;;2.00;0.00;;;;;;;;5058365;28;8885;-80
2021/06/12 03:25:47;;;;;;;;;4.50;2.00;;;;;;;;5062233;28;8949;-82
2021/06/12 03:28:14;;;;;;;;;2.50;2.50;;;;;;;;5070632;28;8856;-81
2021/06/12 03:30:41;;;;;;;;;2.00;2.00;;;;;;;;5060462;28;8787;-83
2021/06/12 03:33:10;;;;;;;;;3.00;3.00;;;;;;;;5048391;28;9631;-79
2021/06/12 03:35:37;;;;;;;;;3.00;3.00;;;;;;;;5052659;28;8998;-81
2021/06/12 03:38:05;;;;;;;;;4.75;4.00;;;;;;;;5051197;28;8869;-79
2021/06/12 03:40:32;;;;;;;;;3.00;3.00;;;;;;;;5051639;28;8873;-81
2021/06/12 03:42:59;;;;;;;;;2.25;2.25;;;;;;;;5050128;28;8845;-78
2021/06/12 03:45:26;;;;;;;;;4.00;2.50;;;;;;;;5052153;28;8892;-81
2021/06/12 03:47:54;;;;;;;;;4.00;4.00;;;;;;;;5052992;28;8876;-80
2021/06/12 03:50:25;;;;;;;;;3.25;3.25;;;;;;;;5060020;28;8942;-80
2021/06/12 03:52:52;;;;;;;;;1.25;1.25;;;;;;;;5054340;28;8867;-81
2021/06/12 03:55:20;;;;;;;;;3.25;3.25;;;;;;;;5055826;28;8876;-77
2021/06/12 03:57:47;;;;;;;;;2.75;2.75;;;;;;;;5054021;28;8859;-78
2021/06/12 04:00:17;;;;;;;;;4.75;3.50;;;;;;;;5054827;28;8969;-76
2021/06/12 04:02:44;;;;;;;;;3.00;3.00;;;;;;;;5054841;28;8881;-80
2021/06/12 04:05:11;;;;;;;;;3.75;3.75;;;;;;;;5048227;28;8877;-80
2021/06/12 04:07:40;;;;;;;;;2.00;2.00;;;;;;;;5056582;28;8894;-83
2021/06/12 04:10:09;;;;;;;;;2.00;2.00;;;;;;;;5049933;28;8939;-81
2021/06/12 04:12:36;;;;;;;;;6.25;3.00;;;;;;;;5061429;28;9589;-80
2021/06/12 04:15:04;;;;;;;;;3.50;2.00;;;;;;;;5058714;28;8842;-82
2021/06/12 04:17:31;;;;;;;;;2.00;2.00;;;;;;;;5056082;28;8954;-79
2021/06/12 04:19:59;;;;;;;;;4.25;2.25;;;;;;;;5061436;28;8998;-80
2021/06/12 04:22:27;;;;;;;;;2.00;2.00;;;;;;;;5061123;28;8857;-78
2021/06/12 04:24:55;;;;;;;;;4.00;3.00;;;;;;;;5058731;28;8889;-81
2021/06/12 04:27:22;;;;;;;;;2.00;2.00;;;;;;;;5048694;28;8943;-81
2021/06/12 04:29:49;;;;;;;;;2.25;2.25;;;;;;;;5066327;28;8873;-81
2021/06/12 04:32:17;;;;;;;;;3.25;2.00;;;;;;;;5052267;28;8815;-80
2021/06/12 04:34:44;;;;;;;;;1.00;1.00;;;;;;;;5050002;28;8994;-78
2021/06/12 04:37:10;;;;;;;;;1.75;1.50;;;;;;;;5060770;28;8892;-81
2021/06/12 04:39:37;;;;;;;;;3.00;1.75;;;;;;;;5053491;28;8949;-76
2021/06/12 04:42:07;;;;;;;;;1.00;1.00;;;;;;;;5061630;28;8986;-79
2021/06/12 04:44:35;;;;;;;;;2.00;2.00;;;;;;;;5056378;28;8849;-80
2021/06/12 04:47:02;;;;;;;;;2.00;1.50;;;;;;;;5054005;28;8853;-76
2021/06/12 04:49:29;;;;;;;;;0.25;0.25;;;;;;;;5048743;28;8982;-81
2021/06/12 04:51:56;;;;;;;;;3.00;2.25;;;;;;;;5057304;28;8858;-81
2021/06/12 04:54:23;;;;;;;;;3.25;3.25;;;;;;;;5055882;28;9627;-81
2021/06/12 04:56:50;;;;;;;;;1.75;1.75;;;;;;;;5069214;28;8971;-77
2021/06/12 04:59:18;;;;;;;;;2.50;2.00;;;;;;;;5061104;28;8956;-80
2021/06/12 05:01:45;;;;;;;;;3.00;3.00;;;;;;;;5052409;28;8891;-78
2021/06/12 05:04:12;;;;;;;;;2.25;2.25;;;;;;;;5050305;28;8867;-80
2021/06/12 05:06:39;;;;;;;;;3.00;3.00;;;;;;;;5061706;28;8939;-80
2021/06/12 05:09:06;;;;;;;;;3.00;3.00;;;;;;;;5055084;28;9005;-78
2021/06/12 05:11:33;;;;;;;;;2.00;2.00;;;;;;;;5064149;28;10243;-79
2021/06/12 05:14:00;;;;;;;;;2.00;2.00;;;;;;;;5055915;28;8939;-81
2021/06/12 05:16:28;;;;;;;;;2.00;2.00;;;;;;;;5053873;28;9737;-80
2021/06/12 05:18:55;;;;;;;;;2.00;2.00;;;;;;;;5061977;28;9611;-80
2021/06/12 05:21:22;;;;;;;;;4.50;3.00;;;;;;;;5046809;28;9001;-76
2021/06/12 05:23:49;;;;;;;;;1.50;1.50;;;;;;;;5060003;28;9684;-78
2021/06/12 05:26:17;;;;;;;;;2.33;2.33;;;;;;;;5056770;28;8855;-81
2021/06/12 05:28:43;;;;;;;;;4.75;3.00;;;;;;;;5062142;28;8936;-78
2021/06/12 05:31:10;;;;;;;;;3.00;3.00;;;;;;;;5049186;28;8821;-76
2021/06/12 05:33:39;;;;;;;;;2.50;2.50;;;;;;;;5055043;28;8874;-81
2021/06/12 05:36:07;;;;;;;;;2.50;2.00;;;;;;;;5062726;28;8835;-81
2021/06/12 05:38:34;;;;;;;;;3.50;3.50;;;;;;;;5063154;28;8878;-79
2021/06/12 05:41:01;;;;;;;;;3.75;2.00;;;;;;;;5059080;28;8961;-79
2021/06/12 05:43:29;;;;;;;;;2.25;2.25;;;;;;;;5051179;28;8886;-80
2021/06/12 05:45:56;;;;;;;;;2.25;1.00;;;;;;;;5052063;28;8879;-76
2021/06/12 05:48:24;;;;;;;;;1.00;1.00;;;;;;;;5051029;28;8887;-78
2021/06/12 05:50:53;;;;;;;;;1.00;1.00;;;;;;;;5056537;28;8893;-78
2021/06/12 05:53:20;;;;;;;;;2.00;2.00;;;;;;;;5055784;28;8893;-78
2021/06/12 05:55:47;;;;;;;;;3.50;2.00;;;;;;;;5060070;28;8846;-78
2021/06/12 05:58:14;;;;;;;;;1.00;1.00;;;;;;;;5048646;28;8845;-80
2021/06/12 06:00:41;;;;;;;;;1.50;1.50;;;;;;;;5054443;28;8931;-81
2021/06/12 06:03:08;;;;;;;;;1.00;1.00;;;;;;;;5055080;28;8890;-79
2021/06/12 06:05:34;;;;;;;;;1.00;1.00;;;;;;;;5055520;28;9597;-79
2021/06/12 06:08:03;;;;;;;;;1.50;1.50;;;;;;;;5047751;28;8869;-83
2021/06/12 06:10:30;;;;;;;;;2.25;2.25;;;;;;;;5054994;28;8865;-81
2021/06/12 06:13:01;;;;;;;;;2.25;2.25;;;;;;;;5055036;28;8882;-79
2021/06/12 06:15:29;;;;;;;;;2.25;2.25;;;;;;;;5053844;28;8870;-80
2021/06/12 06:17:56;;;;;;;;;3.75;2.75;;;;;;;;5049412;28;8854;-78
2021/06/12 06:20:23;;;;;;;;;3.00;3.00;;;;;;;;5055068;28;8845;-79
2021/06/12 06:22:50;;;;;;;;;3.00;2.50;;;;;;;;5060889;28;8905;-82
2021/06/12 06:25:30;;;;;;;;;3.00;3.00;;;;;;;;5059505;28;8866;-83
2021/06/12 06:27:58;;;;;;;;;3.00;3.00;;;;;;;;5048892;28;8917;-84
2021/06/12 06:30:25;;;;;;;;;4.00;4.00;;;;;;;;5062285;28;8859;-86
2021/06/12 06:32:52;;;;;;;;;2.00;2.00;;;;;;;;5064449;28;8879;-85
2021/06/12 06:35:19;;;;;;;;;1.00;1.00;;;;;;;;5051815;28;8865;-84
2021/06/12 06:37:46;;;;;;;;;3.75;2.00;;;;;;;;5059938;28;9626;-88
2021/06/12 06:40:14;;;;;;;;;2.25;2.25;;;;;;;;5039458;28;8863;-89
2021/06/12 06:42:42;;;;;;;;;1.75;1.75;;;;;;;;5051366;28;8948;-89
2021/06/12 06:45:11;;;;;;;;;4.50;4.50;;;;;;;;5062807;28;8985;-88
2021/06/12 06:47:38;;;;;;;;;4.00;2.50;;;;;;;;5065077;28;8881;-85
2021/06/12 06:50:06;;;;;;;;;4.00;3.00;;;;;;;;5045333;28;8887;-84
2021/06/12 06:52:33;;;;;;;;;3.25;3.25;;;;;;;;5060468;28;9046;-88
2021/06/12 06:55:00;;;;;;;;;3.25;3.25;;;;;;;;5060990;28;8987;-76
2021/06/12 06:57:27;;;;;;;;;3.50;3.50;;;;;;;;5053959;28;8881;-76
2021/06/12 06:59:55;;;;;;;;;3.00;3.00;;;;;;;;5048976;28;8838;-76
2021/06/12 07:02:22;;;;;;;;;3.00;3.00;;;;;;;;5053845;27;8964;-77
2021/06/12 07:04:49;;;;;;;;;8.25;5.00;;;;;;;;5059270;28;8998;-77
2021/06/12 07:07:15;;;;;;;;;4.75;4.75;;;;;;;;5047163;28;8886;-78
2021/06/12 07:09:42;;;;;;;;;4.00;4.00;;;;;;;;5056366;28;8998;-82
2021/06/12 07:12:17;;;;;;;;;4.25;4.25;;;;;;;;5047898;28;8874;-83
2021/06/12 07:14:44;;;;;;;;;3.00;3.00;;;;;;;;5055578;28;8867;-81
2021/06/12 07:17:13;;;;;;;;;6.00;2.00;;;;;;;;5048488;28;8848;-85
2021/06/12 07:19:44;;;;;;;;;3.00;3.00;;;;;;;;5051728;28;8902;-80
2021/06/12 07:22:11;;;;;;;;;4.00;2.00;;;;;;;;5056693;28;8850;-79
2021/06/12 07:24:37;;;;;;;;;4.25;4.25;;;;;;;;5051469;28;8892;-82
2021/06/12 07:27:06;;;;;;;;;5.00;3.00;;;;;;;;5053664;28;8867;-77
2021/06/12 07:29:33;;;;;;;;;2.75;2.75;;;;;;;;5050372;28;8971;-79
2021/06/12 07:31:59;;;;;;;;;3.75;3.75;;;;;;;;5049551;28;8861;-81
2021/06/12 07:34:28;;;;;;;;;3.00;3.00;;;;;;;;5058942;28;8881;-80
2021/06/12 07:36:54;;;;;;;;;3.00;2.50;;;;;;;;5058944;28;8862;-81
2021/06/12 07:39:21;;;;;;;;;4.25;4.25;;;;;;;;5059975;28;8846;-79
2021/06/12 07:41:48;;;;;;;;;5.33;5.33;;;;;;;;5052221;28;8914;-77
2021/06/12 07:44:15;;;;;;;;;3.25;3.00;;;;;;;;5052100;28;9644;-78
2021/06/12 07:46:42;;;;;;;;;5.00;4.00;;;;;;;;5062492;28;8964;-78
2021/06/12 07:49:11;;;;;;;;;6.50;4.00;;;;;;;;5050007;28;8877;-78
2021/06/12 07:51:40;;;;;;;;;3.00;3.00;;;;;;;;5054584;28;8885;-78
2021/06/12 07:54:07;;;;;;;;;2.75;2.25;;;;;;;;5052430;28;8945;-77
2021/06/12 07:56:34;;;;;;;;;3.25;3.25;;;;;;;;5057713;28;8849;-78
2021/06/12 07:59:01;;;;;;;;;3.25;2.75;;;;;;;;5063617;28;8871;-78
2021/06/12 08:01:28;;;;;;;;;3.75;3.75;;;;;;;;5057243;28;8933;-78
2021/06/12 08:03:55;;;;;;;;;4.25;3.00;;;;;;;;5061661;28;8904;-78
2021/06/12 08:06:23;;;;;;;;;2.50;2.00;;;;;;;;5062110;28;8842;-78
2021/06/12 08:08:51;;;;;;;;;5.00;5.00;;;;;;;;5061935;28;8999;-78
2021/06/12 08:11:18;;;;;;;;;2.00;2.00;;;;;;;;5052512;28;8962;-78
2021/06/12 08:13:44;;;;;;;;;3.75;3.75;;;;;;;;5057034;28;8882;-77
2021/06/12 08:16:11;;;;;;;;;3.75;3.75;;;;;;;;5060453;28;8839;-78
2021/06/12 08:18:38;;;;;;;;;3.00;3.00;;;;;;;;5063992;28;8965;-78
2021/06/12 08:21:06;;;;;;;;;3.00;3.00;;;;;;;;5060914;28;8900;-78
2021/06/12 08:23:33;;;;;;;;;3.00;3.00;;;;;;;;5063736;28;8878;-78
2021/06/12 08:26:01;;;;;;;;;5.25;4.00;;;;;;;;5052068;28;9468;-78
2021/06/12 08:28:28;;;;;;;;;2.00;2.00;;;;;;;;5053876;28;8853;-78
2021/06/12 08:30:56;;;;;;;;;3.00;3.00;;;;;;;;5055551;28;8815;-78
2021/06/12 08:33:23;;;;;;;;;2.00;2.00;;;;;;;;5062200;28;8873;-78
2021/06/12 08:35:49;;;;;;;;;5.50;2.75;;;;;;;;5059809;28;8865;-78
2021/06/12 08:38:16;;;;;;;;;2.00;2.00;;;;;;;;5066398;28;8854;-78
2021/06/12 08:40:43;;;;;;;;;5.00;4.00;;;;;;;;5064893;28;8891;-78
2021/06/12 08:43:11;;;;;;;;;3.75;3.25;;;;;;;;5059369;28;8863;-78
2021/06/12 08:45:41;;;;;;;;;4.75;3.25;;;;;;;;5059066;28;8958;-78
2021/06/12 08:48:09;;;;;;;;;5.00;5.00;;;;;;;;5063455;28;8870;-78
2021/06/12 08:50:36;;;;;;;;;5.50;4.50;;;;;;;;5060641;28;9497;-79
2021/06/12 08:53:03;;;;;;;;;3.00;3.00;;;;;;;;5061856;28;8870;-78
2021/06/12 08:55:29;;;;;;;;;2.00;2.00;;;;;;;;5065637;28;8855;-78
2021/06/12 08:57:56;;;;;;;;;2.75;2.75;;;;;;;;5058389;28;8859;-78
2021/06/12 09:00:25;;;;;;;;;3.50;3.50;;;;;;;;5060545;27;10705;-78
2021/06/12 09:03:14;;;;;;;;;2.00;2.00;;;;;;;;5069084;28;9426;-78
2021/06/12 09:05:48;;;;;;;;;1.25;1.25;;;;;;;;5063916;28;8968;-78
2021/06/12 09:08:17;;;;;;;;;3.25;3.00;;;;;;;;5058036;28;8940;-78
2021/06/12 09:10:48;;;;;;;;;2.75;2.75;;;;;;;;5066610;28;9664;-78
2021/06/12 09:13:15;;;;;;;;;2.00;2.00;;;;;;;;5065599;28;8977;-78
2021/06/12 09:15:51;;;;;;;;;3.00;3.00;;;;;;;;5058641;28;8862;-78
2021/06/12 09:18:39;;;;;;;;;2.75;2.75;;;;;;;;5054443;28;8877;-78
2021/06/12 09:21:07;;;;;;;;;23.50;23.00;;;;;;;;5056896;28;8867;-78
2021/06/12 09:23:42;;;;;;;;;30.75;30.25;;;;;;;;5053199;28;9670;-78
2021/06/12 09:26:10;;;;;;;;;28.25;26.50;;;;;;;;5050552;28;8923;-78
2021/06/12 09:28:47;;;;;;;;;24.00;24.00;;;;;;;;5058969;28;8935;-79
2021/06/12 09:31:25;;;;;;;;;12.25;12.25;;;;;;;;5050790;28;8881;-78
2021/06/12 09:33:55;;;;;;;;;10.00;10.00;;;;;;;;5046262;28;8847;-81
2021/06/12 09:36:34;;;;;;;;;9.00;9.00;;;;;;;;5058828;28;8838;-79
2021/06/12 09:39:10;;;;;;;;;6.25;6.25;;;;;;;;5062772;28;8882;-77
2021/06/12 09:41:37;;;;;;;;;2.50;2.50;;;;;;;;5062231;28;8890;-79
2021/06/12 09:44:05;;;;;;;;;1.00;1.00;;;;;;;;5058167;28;8890;-76
2021/06/12 09:46:43;;;;;;;;;1.40;1.40;;;;;;;;5053490;28;8999;-81
2021/06/12 09:49:11;;;;;;;;;2.00;2.00;;;;;;;;5052217;28;8846;-79
2021/06/12 09:51:39;;;;;;;;;24.50;24.50;;;;;;;;5056034;28;8873;-77
2021/06/12 09:54:07;;;;;;;;;4.00;4.00;;;;;;;;5059385;28;8878;-80
2021/06/12 09:56:34;;;;;;;;;2.60;2.60;;;;;;;;5055791;28;8874;-80
2021/06/12 09:59:02;;;;;;;;;3.80;2.60;;;;;;;;5062165;28;8883;-80
2021/06/12 10:01:33;;;;;;;;;3.60;3.60;;;;;;;;5057205;28;8836;-79
2021/06/12 10:04:12;;;;;;;;;3.20;3.20;;;;;;;;5052173;28;8876;-81
2021/06/12 10:06:40;;;;;;;;;7.00;6.80;;;;;;;;5056172;28;8877;-81
2021/06/12 10:09:08;;;;;;;;;44.25;38.00;;;;;;;;5052646;28;8865;-82
2021/06/12 10:11:36;;;;;;;;;13.80;13.80;;;;;;;;5058611;28;8854;-81
2021/06/12 10:14:05;;;;;;;;;3.80;3.80;;;;;;;;5064116;28;8847;-79
2021/06/12 10:16:37;;;;;;;;;11.60;11.60;;;;;;;;5062107;28;8848;-82
2021/06/12 10:19:07;;;;;;;;;7.00;7.00;;;;;;;;5061495;28;9682;-82
2021/06/12 10:21:35;;;;;;;;;15.40;13.80;;;;;;;;5056382;28;8874;-78
2021/06/12 10:24:06;;;;;;;;;4.00;4.00;;;;;;;;5055022;28;8992;-82
2021/06/12 10:26:33;;;;;;;;;6.20;6.20;;;;;;;;5054929;28;9696;-80
2021/06/12 10:29:01;;;;;;;;;3.00;3.00;;;;;;;;5057163;28;8887;-79
2021/06/12 10:31:30;;;;;;;;;4.00;4.00;;;;;;;;5054089;27;8917;-80
2021/06/12 10:33:58;;;;;;;;;4.00;4.00;;;;;;;;5052511;28;8893;-78
2021/06/12 10:36:27;;;;;;;;;5.00;5.00;;;;;;;;5056464;28;9043;-78
2021/06/12 10:38:56;;;;;;;;;5.00;5.00;;;;;;;;5059034;28;8905;-77
2021/06/12 10:41:25;;;;;;;;;5.00;5.00;;;;;;;;5043589;28;8849;-78
2021/06/12 10:43:54;;;;;;;;;6.00;4.00;;;;;;;;5052562;28;8862;-78
2021/06/12 10:46:23;;;;;;;;;5.20;5.00;;;;;;;;5054495;28;8901;-77
2021/06/12 10:48:52;;;;;;;;;5.00;5.00;;;;;;;;5046596;28;8920;-78
2021/06/12 10:51:45;;;;;;;;;4.20;4.20;;;;;;;;5061126;28;8859;-76
2021/06/12 10:54:35;;;;;;;;;5.00;5.00;;;;;;;;5052361;28;8853;-76
2021/06/12 10:57:03;;;;;;;;;5.00;5.00;;;;;;;;5062502;28;8867;-77
2021/06/12 10:59:45;;;;;;;;;5.00;4.00;;;;;;;;5060261;28;8977;-78
2021/06/12 11:02:17;;;;;;;;;6.20;6.20;;;;;;;;5071391;28;8820;-77
2021/06/12 11:04:51;;;;;;;;;5.00;4.00;;;;;;;;5060733;28;8885;-75
2021/06/12 11:07:29;;;;;;;;;5.40;5.40;;;;;;;;5053846;28;8883;-77
2021/06/12 11:10:25;;;;;;;;;7.80;6.00;;;;;;;;5063271;28;8874;-77
2021/06/12 11:12:54;;;;;;;;;5.00;5.00;;;;;;;;5055277;28;8874;-78
2021/06/12 11:15:34;;;;;;;;;5.00;5.00;;;;;;;;5059774;28;8883;-78
2021/06/12 11:18:20;;;;;;;;;6.00;6.00;;;;;;;;5064010;28;8859;-77
2021/06/12 11:20:49;;;;;;;;;4.60;4.60;;;;;;;;5058431;28;8834;-77
2021/06/12 11:23:17;;;;;;;;;5.20;5.20;;;;;;;;5058042;28;8867;-77
2021/06/12 11:25:55;;;;;;;;;4.80;4.20;;;;;;;;5073313;28;8933;-77
2021/06/12 11:28:25;;;;;;;;;4.00;4.00;;;;;;;;5054892;28;8985;-78
2021/06/12 11:30:54;;;;;;;;;5.00;4.80;;;;;;;;5059316;28;9670;-78
2021/06/12 11:33:22;;;;;;;;;5.80;5.80;;;;;;;;5060165;28;8854;-78
2021/06/12 11:35:51;;;;;;;;;6.00;6.00;;;;;;;;5062644;28;8854;-78
2021/06/12 11:38:21;;;;;;;;;6.80;5.00;;;;;;;;5062904;28;8896;-78
2021/06/12 11:40:55;;;;;;;;;7.00;5.80;;;;;;;;5059293;28;9710;-78
2021/06/12 11:43:34;;;;;;;;;4.80;4.80;;;;;;;;5046653;28;8869;-78
2021/06/12 11:46:02;;;;;;;;;5.00;5.00;;;;;;;;5050913;28;8854;-77
2021/06/12 11:48:30;;;;;;;;;6.40;4.60;;;;;;;;5058544;28;8857;-77
2021/06/12 11:50:59;;;;;;;;;5.00;5.00;;;;;;;;5057944;28;8865;-78
2021/06/12 11:53:34;;;;;;;;;5.40;5.40;;;;;;;;5051620;28;8958;-77
2021/06/12 11:56:03;;;;;;;;;5.80;5.80;;;;;;;;5056033;28;8894;-78
2021/06/12 11:58:30;;;;;;;;;6.80;6.80;;;;;;;;5049799;28;9006;-77
2021/06/12 12:00:58;;;;;;;;;5.60;5.60;;;;;;;;5055572;28;8837;-79
2021/06/12 12:03:26;;;;;;;;;6.00;6.00;;;;;;;;5054412;28;8858;-79
2021/06/12 12:05:59;;;;;;;;;7.20;6.20;;;;;;;;5060589;28;9012;-82
2021/06/12 12:08:25;;;;;;;;;4.80;4.80;;;;;;;;5058146;28;8877;-81
2021/06/12 12:10:54;;;;;;;;;5.00;5.00;;;;;;;;5050377;28;8929;-78
2021/06/12 12:13:34;;;;;;;;;6.20;6.00;;;;;;;;5052570;28;8959;-79
2021/06/12 12:16:01;;;;;;;;;5.20;5.20;;;;;;;;5064475;28;8889;-79
2021/06/12 12:18:28;;;;;;;;;5.60;5.60;;;;;;;;5057781;28;8866;-77
2021/06/12 12:20:57;;;;;;;;;6.60;6.60;;;;;;;;5055698;28;8881;-77
2021/06/12 12:23:26;;;;;;;;;6.20;5.20;;;;;;;;5053375;28;8874;-78
2021/06/12 12:26:06;;;;;;;;;4.20;4.20;;;;;;;;5061049;28;8863;-77
2021/06/12 12:28:49;;;;;;;;;6.00;6.00;;;;;;;;5046831;28;9031;-78
2021/06/12 12:31:16;;;;;;;;;7.40;7.40;;;;;;;;5054847;28;8814;-78
2021/06/12 12:33:47;;;;;;;;;7.80;7.80;;;;;;;;5046258;28;8905;-78
2021/06/12 12:36:15;;;;;;;;;5.60;5.60;;;;;;;;5051696;28;8859;-79
2021/06/12 12:38:43;;;;;;;;;5.00;5.00;;;;;;;;5055347;28;8863;-77
2021/06/12 12:41:11;;;;;;;;;8.00;8.00;;;;;;;;5058893;28;8892;-79
2021/06/12 12:43:39;;;;;;;;;8.20;6.80;;;;;;;;5052068;28;8865;-79
2021/06/12 12:46:09;;;;;;;;;7.00;5.40;;;;;;;;5052829;28;8981;-78
2021/06/12 12:48:41;;;;;;;;;7.40;7.40;;;;;;;;5051324;28;8865;-79
2021/06/12 12:51:09;;;;;;;;;5.40;5.40;;;;;;;;5054875;28;8861;-79
2021/06/12 12:53:40;;;;;;;;;4.00;4.00;;;;;;;;5056451;28;8867;-79
2021/06/12 12:56:08;;;;;;;;;6.40;6.00;;;;;;;;5050082;28;9604;-78
2021/06/12 12:58:36;;;;;;;;;7.60;7.60;;;;;;;;5049564;28;8988;-78
2021/06/12 13:01:06;;;;;;;;;4.60;4.60;;;;;;;;5055649;27;8806;-80
2021/06/12 13:03:44;;;;;;;;;5.80;4.40;;;;;;;;5061421;28;8886;-79
2021/06/12 13:06:30;;;;;;;;;7.60;6.00;;;;;;;;5049705;28;8879;-79
2021/06/12 13:09:07;;;;;;;;;7.40;7.40;;;;;;;;5057142;28;8883;-79
2021/06/12 13:11:42;;;;;;;;;6.80;6.80;;;;;;;;5055691;28;8877;-80
2021/06/12 13:14:09;;;;;;;;;5.20;5.20;;;;;;;;5052048;28;8900;-79
2021/06/12 13:16:37;;;;;;;;;6.00;6.00;;;;;;;;5056811;28;8917;-79
2021/06/12 13:19:14;;;;;;;;;5.80;5.80;;;;;;;;5049364;28;8888;-79
2021/06/12 13:21:48;;;;;;;;;6.00;6.00;;;;;;;;5061285;28;8889;-80
2021/06/12 13:24:16;;;;;;;;;6.40;5.60;;;;;;;;5056845;28;8975;-79
2021/06/12 13:26:44;;;;;;;;;5.40;5.20;;;;;;;;5057621;28;8983;-80
2021/06/12 13:29:18;;;;;;;;;4.40;4.40;;;;;;;;5057412;28;8881;-78
2021/06/12 13:31:48;;;;;;;;;4.00;4.00;;;;;;;;5060100;28;8876;-79
2021/06/12 13:34:25;;;;;;;;;6.80;4.00;;;;;;;;5053389;28;8886;-79
2021/06/12 13:36:53;;;;;;;;;4.60;4.60;;;;;;;;5050110;28;8879;-78
2021/06/12 13:39:32;;;;;;;;;4.80;4.80;;;;;;;;5051014;28;8906;-78
2021/06/12 13:42:14;;;;;;;;;5.60;5.60;;;;;;;;5056270;28;8881;-79
2021/06/12 13:44:45;;;;;;;;;5.00;5.00;;;;;;;;5049826;28;8956;-79
2021/06/12 13:47:14;;;;;;;;;4.40;4.40;;;;;;;;5048677;28;8857;-79
2021/06/12 13:49:41;;;;;;;;;7.20;6.00;;;;;;;;5058612;28;8877;-78
2021/06/12 13:52:08;;;;;;;;;4.80;4.80;;;;;;;;5064955;28;8866;-79
2021/06/12 13:54:35;;;;;;;;;3.80;3.80;;;;;;;;5065235;28;8862;-78
2021/06/12 13:57:02;;;;;;;;;3.80;3.80;;;;;;;;5061361;28;8869;-79
2021/06/12 13:59:29;;;;;;;;;3.20;3.20;;;;;;;;5053799;28;9036;-79
2021/06/12 14:01:56;;;;;;;;;3.60;3.60;;;;;;;;5066607;27;8823;-77
2021/06/12 14:04:24;;;;;;;;;4.60;3.80;;;;;;;;5051207;28;8988;-80
2021/06/12 14:06:51;;;;;;;;;4.20;4.20;;;;;;;;5059512;28;8977;-77
2021/06/12 14:09:18;;;;;;;;;3.60;3.60;;;;;;;;5045764;28;8861;-79
2021/06/12 14:11:46;;;;;;;;;5.00;5.00;;;;;;;;5066178;28;8981;-78
2021/06/12 14:14:12;;;;;;;;;5.80;4.20;;;;;;;;5062956;28;9000;-77
2021/06/12 14:16:39;;;;;;;;;3.00;3.00;;;;;;;;5057816;28;8931;-79
2021/06/12 14:19:06;;;;;;;;;3.20;3.20;;;;;;;;5064707;28;8977;-78
2021/06/12 14:21:34;;;;;;;;;5.00;3.60;;;;;;;;5056186;28;10001;-79
2021/06/12 14:24:02;;;;;;;;;4.80;4.80;;;;;;;;5060268;28;8851;-79
2021/06/12 14:26:31;;;;;;;;;4.60;4.60;;;;;;;;5044482;28;8860;-79
2021/06/12 14:28:59;;;;;;;;;5.00;5.00;;;;;;;;5063484;28;8850;-80
2021/06/12 14:31:26;;;;;;;;;5.20;5.20;;;;;;;;5063763;28;9016;-80
2021/06/12 14:33:53;;;;;;;;;3.80;3.80;;;;;;;;5058264;28;8862;-80
2021/06/12 14:36:20;;;;;;;;;4.80;3.20;;;;;;;;5054713;28;8871;-79
2021/06/12 14:38:48;;;;;;;;;4.20;4.20;;;;;;;;5057817;28;8917;-80
2021/06/12 14:41:15;;;;;;;;;3.80;3.80;;;;;;;;5050261;28;8892;-79
2021/06/12 14:43:42;;;;;;;;;5.40;5.40;;;;;;;;5063073;28;8943;-79
2021/06/12 14:46:10;;;;;;;;;4.80;4.80;;;;;;;;5062622;28;8842;-78
2021/06/12 14:48:36;;;;;;;;;5.20;5.00;;;;;;;;5062767;28;8855;-80
2021/06/12 14:51:04;;;;;;;;;6.20;6.20;;;;;;;;5063166;28;8863;-79
2021/06/12 14:53:31;;;;;;;;;4.20;4.20;;;;;;;;5063953;28;8979;-79
2021/06/12 14:55:59;;;;;;;;;5.00;5.00;;;;;;;;5065704;28;8865;-79
2021/06/12 14:58:26;;;;;;;;;7.00;6.40;;;;;;;;5057929;28;8839;-79
2021/06/12 15:00:53;;;;;;;;;5.00;5.00;;;;;;;;5050109;28;8817;-79
2021/06/12 15:03:20;;;;;;;;;6.80;5.00;;;;;;;;5058767;28;8884;-79
2021/06/12 15:05:47;;;;;;;;;7.40;5.80;;;;;;;;5063504;28;9008;-78
2021/06/12 15:08:14;;;;;;;;;5.20;5.00;;;;;;;;5059722;28;9677;-79